Tiempo atmosférico en la estación meteorológica de Xinzo De Limia, Ourense (600 m.)



Fecha
DESCASC
Temp. máxima en grados centígrados (hora)
DESCASC
Temp. mínima en grados centígrados (hora)
DESCASC
Temp. media en grados centígrados
DESCASC
Racha de viento máxima en m/sg (hora)
DESCASC
Velocidad máxima media en intervalos de 10 minutos(hora)
DESCASC
Precipitaciones diarias en mm
DESCASC
Precipitaciones de 00:00 a 06:00 en mm
DESCASC
Precipitaciones de 06:00 a 12:00 en mm
DESCASC
Precipitaciones de 12:00 a 18:00 en mm
DESCASC
Precipitaciones de 18:00 a 24:00 en mm
DESCASC
31-05-2020 26.8 (13:20) 12.3 (07:00) 19.5 8.61 (22:50) 5.28 (22:50) 0 0 0 0 0
30-05-2020 30.7 (15:40) 8.4 (06:00) 19.6 6.67 (16:40) 3.89 (15:50) 0 0 0 0 0
28-05-2020 31.6 (16:00) 11.2 (00:00) 21.4 7.5 (10:50) 5 (10:50) 0 0 0 0 0
27-05-2020 29.7 (19:20) 10.7 (07:10) 20.2 8.89 (15:30) 4.72 (14:30) 0 0 0 0 0
26-05-2020 28.7 (18:50) 7.7 (00:00) 18.2 7.22 (12:20) 5.28 (20:40) 0 0 0 0 0
25-05-2020 26.5 (18:00) 9.2 (00:00) 17.8 8.61 (19:20) 5.56 (19:20) 0 0 0 0 0
24-05-2020 29.1 (18:20) 6 (07:10) 17.6 7.22 (10:40) 4.17 (12:50) 0 0 0 0 0
23-05-2020 23.1 (18:10) 10.6 (00:00) 16.9 8.61 (14:40) 5 (20:00) 0 0 0 0 0
22-05-2020 25.8 (15:40) 6.7 (00:00) 16.2 7.22 (17:10) 4.17 (17:00) 0 0 0 0 0
21-05-2020 29.7 (15:50) 9 (00:00) 19.4 8.89 (13:40) 5.28 (13:30) 0 0 0 0 0
20-05-2020 29.2 (16:10) 8 (00:00) 18.6 9.44 (16:30) 5 (17:50) 0 0 0 0 0
19-05-2020 28.7 (16:40) 6 (00:00) 17.4 8.61 (10:50) 5.28 (10:50) 0 0 0 0 0
18-05-2020 26 (17:10) 5.1 (00:00) 15.5 7.78 (19:40) 5 (19:40) 0 0 0 0 0
17-05-2020 24.1 (18:40) 7.3 (00:00) 15.7 9.72 (18:20) 4.44 (04:10) 0 0 0 0 0
16-05-2020 21.4 (17:40) 3.5 (00:00) 12.4 6.67 (17:30) 3.61 (21:00) 0 0 0 0 0
15-05-2020 16.5 (15:30) 7.3 (00:00) 11.9 5.28 (13:50) 3.33 (13:50) 2.2 0 0 2.1 0.1
14-05-2020 13.8 (17:40) 9.2 (00:00) 11.5 6.11 (13:30) 3.89 (19:30) 4.3 0.3 1.7 1.6 0.7
13-05-2020 19.5 (18:30) 8.7 (00:00) 14.1 8.33 (16:00) 4.17 (15:00) 0.1 0.1 0 0 0
12-05-2020 19.7 (16:10) 9.9 (04:30) 14.8 -- (--) -- (--) 12.4 0.1 3.7 4.2 4.4
11-05-2020 21.6 (17:00) 4.1 (00:00) 12.9 7.22 (09:20) 4.17 (09:20) 0.8 0 0 0 0.8
10-05-2020 18 (15:30) 6.6 (00:00) 12.3 8.33 (16:40) 4.72 (17:00) 0 0 0 0 0
09-05-2020 18.3 (14:30) 9 (23:20) 13.6 10 (13:20) 5.28 (13:10) 10.3 0 0 4.6 5.7
08-05-2020 23 (14:30) 11.9 (00:00) 17.4 10.83 (14:50) 5.83 (14:40) 0.5 0 0.5 0 0
07-05-2020 26.2 (16:40) 6.1 (00:00) 16.2 7.78 (16:50) 4.17 (17:50) 0 0 0 0 0
06-05-2020 22 (17:20) 4.1 (00:00) 13 6.39 (13:00) 3.33 (11:00) 0 0 0 0 0
05-05-2020 19.8 (18:40) 7 (00:00) 13.4 8.61 (17:50) 4.72 (13:10) 0 0 0 0 0
04-05-2020 23.9 (12:40) 11.3 (00:00) 17.6 17.5 (17:20) 7.78 (15:40) 0.8 0 0 0.7 0.1
03-05-2020 26.3 (18:50) 5.4 (04:00) 15.8 10.83 (11:20) 6.11 (11:20) 0.1 0 0.1 0 0
02-05-2020 20.8 (16:40) 10.4 (23:59) 15.6 9.44 (15:10) 3.89 (15:10) 0 0 0 0 0

Gráficas

Temp. máximas Temp. mínimas Temp. medias Precipitaciones Rachas de viento máximas Velocidades máximas media en intervalos de 10 minutos

Datos horarios

Fecha y hora oficial Temperatura (ºC) Velocidad del viento (km/h) Dirección del viento Racha (km/h) Dirección de racha Precipitación (mm) Presión (hPa) Tendencia (hPa) Humedad (%)
2020-05-31 23:00:00 18 17 Sudeste 31 Sudeste 0 -- -- 70
2020-05-31 22:00:00 18.5 7 Sudeste 13 Sudeste 0 -- -- 71
2020-05-31 21:00:00 19.8 0 Calma 8 Sur 0 -- -- 68
2020-05-31 20:00:00 21.8 2 Sudoeste 6 Sudoeste 0 -- -- 66
2020-05-31 19:00:00 22.2 3 Sudoeste 8 Oeste 0 -- -- 59
2020-05-31 18:00:00 23.1 6 Oeste 11 Oeste 0 -- -- 55
2020-05-31 17:00:00 24 8 Norte 19 Nordeste 0 -- -- 45
2020-05-31 16:00:00 24.7 11 Norte 19 Norte 0 -- -- 48
2020-05-31 15:00:00 22 6 Noroeste 19 Norte 0 -- -- 59
2020-05-31 14:00:00 23.8 12 Norte 20 Noroeste 0 -- -- 42
2020-05-31 13:00:00 25.9 8 Norte 16 Noroeste 0 -- -- 43
2020-05-31 12:00:00 24.6 4 Noroeste 12 Nordeste 0 -- -- 50
2020-05-31 11:00:00 22.5 3 Este 9 Nordeste 0 -- -- 70
2020-05-31 10:00:00 17.8 0 Calma 5 Sur 0 -- -- 92
2020-05-31 09:00:00 14.8 3 Sur 8 Sur 0 -- -- 92
2020-05-31 08:00:00 13.1 0 Calma -- -- 0 -- -- 92
2020-05-31 07:00:00 12.3 0 Calma -- -- 0 -- -- 92
2020-05-31 06:00:00 12.8 0 Calma -- -- 0 -- -- 91
2020-05-31 05:00:00 13.5 0 Calma 7 Norte 0 -- -- 90
2020-05-31 04:00:00 15.2 0 Calma 6 Sudoeste 0 -- -- 90
2020-05-31 03:00:00 15.4 4 Sur 9 Sur 0 -- -- 89
2020-05-31 02:00:00 15.9 3 Sur 9 Sur 0 -- -- 85
2020-05-31 01:00:00 16.7 0 Calma 2 Este 0 -- -- 82
2020-05-31 00:00:00 17.6 2 Este 7 Oeste 0 -- -- 72
2020-05-30 23:00:00 20.2 2 Sur 8 Este 0 -- -- 61
2020-05-30 22:00:00 22 8 Sudeste 13 Sudeste 0 -- -- 58
2020-05-30 21:00:00 22.8 0 Calma 11 Sudoeste 0 -- -- 55
2020-05-30 20:00:00 24 4 Sudoeste 14 Sudoeste 0 -- -- 47
2020-05-30 19:00:00 26.9 5 Noroeste 18 Norte 0 -- -- 35
2020-05-30 18:00:00 29 11 Noroeste 19 Oeste 0 -- -- 29
2020-05-30 17:00:00 30 12 Norte 24 Norte 0 -- -- 28
2020-05-30 16:00:00 30.3 13 Norte 21 Norte 0 -- -- 25
2020-05-30 15:00:00 29.8 10 Norte 18 Norte 0 -- -- 27
2020-05-30 14:00:00 29.2 6 Noroeste 12 Nordeste 0 -- -- 22
2020-05-30 13:00:00 28.1 2 Este 12 Sudeste 0 -- -- 31
2020-05-30 12:00:00 26.3 6 Sudeste 12 Este 0 -- -- 39
2020-05-30 11:00:00 21.7 3 Oeste 6 Noroeste 0 -- -- 52
2020-05-30 10:00:00 18.2 0 Calma 8 Sudoeste 0 -- -- 70
2020-05-30 09:00:00 13.5 0 Calma -- -- 0 -- -- 91
2020-05-30 08:00:00 9.4 0 Calma 6 Sudoeste 0 -- -- 92
2020-05-30 07:00:00 8.6 3 Sudoeste 9 Sudoeste 0 -- -- 92
2020-05-30 06:00:00 8.5 0 Calma 6 Noroeste 0 -- -- 92
2020-05-30 05:00:00 9.4 0 Calma 4 Oeste 0 -- -- 90
2020-05-30 04:00:00 -- 0 Calma 6 Sur 0 -- -- --
2020-05-30 03:00:00 12.5 0 Calma 5 Sur 0 -- -- 84
2020-05-30 02:00:00 14.9 0 Calma 10 Sudoeste 0 -- -- 81
2020-05-30 01:00:00 16.2 8 Sudoeste 10 Oeste 0 -- -- 78
2020-05-30 00:00:00 18.1 5 Sudoeste 9 Sudoeste 0 -- -- 71
2020-05-29 23:00:00 20.2 4 Sudoeste 12 Noroeste 0 -- -- 63
2020-05-29 22:00:00 23 9 Noroeste 18 Noroeste 0 -- -- 49
2020-05-29 21:00:00 26.7 14 Noroeste 23 Noroeste 0 -- -- 41
2020-05-29 20:00:00 29.3 11 Noroeste 19 Noroeste 0 -- -- 34
2020-05-29 19:00:00 29.9 10 Norte 18 Nordeste 0 -- -- 33
2020-05-29 18:00:00 27.1 8 Noroeste 24 Norte 0 -- -- 38
2020-05-29 17:00:00 29.8 15 Norte 32 Noroeste 0 -- -- 31
2020-05-29 16:00:00 30.3 15 Noroeste 24 Noroeste 0 -- -- 31
2020-05-29 15:00:00 30 14 Norte 28 Noroeste 0 -- -- 31
2020-05-29 14:00:00 29.4 11 Norte 23 Noroeste 0 -- -- 36
2020-05-29 13:00:00 28.6 12 Norte 25 Norte 0 -- -- 39
2020-05-29 12:00:00 27.6 9 Norte 14 Norte 0 -- -- 44
2020-05-29 11:00:00 24.4 3 Norte 8 Noroeste 0 -- -- 59
2020-05-29 10:00:00 21.1 0 Calma -- -- 0 -- -- 75
2020-05-29 09:00:00 18.2 0 Calma -- -- 0 -- -- 92
2020-05-29 08:00:00 15 0 Calma -- -- 0 -- -- 92
2020-05-29 07:00:00 13.2 0 Calma -- -- 0 -- -- 91
2020-05-29 06:00:00 14.7 0 Calma 4 Sur 0 -- -- 90
2020-05-29 05:00:00 15.7 0 Calma 4 Oeste 0 -- -- 87
2020-05-29 04:00:00 16.8 0 Calma 6 Sur 0 -- -- 85
2020-05-29 03:00:00 17.1 0 Calma 6 Sur 0 -- -- 85
2020-05-29 02:00:00 17.3 4 Sudoeste 8 Sudoeste 0 -- -- 83
2020-05-29 01:00:00 18.2 5 Sudoeste 10 Oeste 0 -- -- 81
2020-05-29 00:00:00 19.1 5 Oeste 8 Oeste 0 -- -- 79
2020-05-28 23:00:00 20.7 3 Sudoeste 6 Sudoeste 0 -- -- 74
2020-05-28 22:00:00 22.2 3 Sudoeste 12 Norte 0 -- -- 65
2020-05-28 21:00:00 22.9 5 Norte 10 Noroeste 0 -- -- 63
2020-05-28 20:00:00 23.1 3 Sudoeste 18 Oeste 0 -- -- 58
2020-05-28 19:00:00 23.1 4 Oeste 21 Oeste 0 -- -- 56
2020-05-28 18:00:00 23.3 10 Oeste 24 Oeste 0 -- -- 53
2020-05-28 17:00:00 25.4 9 Sudoeste 27 Oeste 0 -- -- 44
2020-05-28 16:00:00 31.3 9 Este 20 Este 0 -- -- 30
2020-05-28 15:00:00 31 6 Este 17 Este 0 -- -- 33
2020-05-28 14:00:00 29.4 6 Sudeste 21 Sudeste 0 -- -- 39
2020-05-28 13:00:00 28.1 11 Sudeste 24 Este 0 -- -- 42
2020-05-28 12:00:00 26.6 13 Sudeste 25 Sudeste 0 -- -- 44
2020-05-28 11:00:00 24.9 14 Sudeste 27 Sudeste 0 -- -- 47
2020-05-28 10:00:00 22.7 11 Sudeste 22 Este 0 -- -- 60
2020-05-28 09:00:00 16.3 4 Sur 9 Sur 0 -- -- 91
2020-05-28 08:00:00 12.3 3 Sudoeste 7 Sudoeste 0 -- -- 92
2020-05-28 07:00:00 11.4 0 Calma 6 Sudoeste 0 -- -- 91
2020-05-28 06:00:00 11.5 3 Nordeste 6 Sur 0 -- -- 89
2020-05-28 05:00:00 13.1 3 Sur 10 Sudoeste 0 -- -- 89
2020-05-28 04:00:00 13.8 6 Oeste 10 Oeste 0 -- -- 88
2020-05-28 03:00:00 13.8 0 Calma 3 Noroeste 0 -- -- 85
2020-05-28 02:00:00 15.3 0 Calma 8 Sur 0 -- -- 81
2020-05-28 01:00:00 16.5 4 Sur 8 Sur 0 -- -- 77
2020-05-28 00:00:00 17.9 5 Sudoeste 8 Sudoeste 0 -- -- 71
2020-05-27 23:00:00 19.6 5 Nordeste 11 Nordeste 0 -- -- 65
2020-05-27 22:00:00 25 3 Oeste 6 Sudeste 0 -- -- 47
2020-05-27 21:00:00 28.1 4 Sudeste 15 Sudeste 0 -- -- 36
2020-05-27 20:00:00 28.6 9 Sudeste 20 Sur 0 -- -- 34
2020-05-27 19:00:00 29.4 12 Sur 24 Sudeste 0 -- -- 33
2020-05-27 18:00:00 28.4 11 Sudeste 31 Sudeste 0 -- -- 35
2020-05-27 17:00:00 28.5 14 Sudeste 29 Sudeste 0 -- -- 35
2020-05-27 16:00:00 28.2 15 Sudeste 32 Sudeste 0 -- -- 36
2020-05-27 15:00:00 27.8 16 Sudeste 31 Sudeste 0 -- -- 39
2020-05-27 14:00:00 27.2 14 Sudeste 30 Sudeste 0 -- -- 41
2020-05-27 13:00:00 26.2 13 Sudeste 25 Sudeste 0 -- -- 45
2020-05-27 12:00:00 24.8 12 Sudeste 26 Sudeste 0 -- -- 47
2020-05-27 11:00:00 23.2 13 Sudeste 28 Sur 0 -- -- 50
2020-05-27 10:00:00 21 12 Sur 22 Sudeste 0 -- -- 56
2020-05-27 09:00:00 17.4 6 Sudeste 14 Sur 0 -- -- 90
2020-05-27 08:00:00 12.8 2 Norte 8 Nordeste 0 -- -- 92
2020-05-27 07:00:00 10.9 0 Calma 11 Oeste 0 -- -- 92
2020-05-27 06:00:00 11.2 8 Nordeste 10 Nordeste 0 -- -- 92
2020-05-27 05:00:00 11.7 4 Nordeste 9 Nordeste 0 -- -- 91
2020-05-27 04:00:00 12.3 0 Calma 10 Nordeste 0 -- -- 90
2020-05-27 03:00:00 12.8 0 Calma 5 Nordeste 0 -- -- 88
2020-05-27 02:00:00 14.1 0 Calma 8 Sur 0 -- -- 84
2020-05-27 01:00:00 15.7 3 Sudoeste 7 Sur 0 -- -- 81
2020-05-27 00:00:00 17.4 4 Sudoeste 6 Sur 0 -- -- 77
2020-05-26 23:00:00 18.9 0 Calma 9 Norte 0 -- -- 67
2020-05-26 22:00:00 21.7 5 Norte 19 Norte 0 -- -- 54
2020-05-26 21:00:00 25 15 Norte 26 Norte 0 -- -- 46
2020-05-26 20:00:00 27 14 Norte 19 Norte 0 -- -- 42
2020-05-26 19:00:00 27.6 6 Sudeste 23 Sudeste 0 -- -- 36
2020-05-26 18:00:00 28.1 9 Sudeste 23 Sudeste 0 -- -- 37
2020-05-26 17:00:00 27.7 12 Sudeste 24 Sur 0 -- -- 38
2020-05-26 16:00:00 27.1 11 Sudeste 26 Sudeste 0 -- -- 39
2020-05-26 15:00:00 26.5 12 Sudeste 25 Sudeste 0 -- -- 41
2020-05-26 14:00:00 25.7 10 Sudeste 26 Sudeste 0 -- -- 43
2020-05-26 13:00:00 24.8 12 Sudeste 26 Sudeste 0 -- -- 44
2020-05-26 12:00:00 23.7 13 Este 25 Este 0 -- -- 43
2020-05-26 11:00:00 21.2 10 Sudeste 21 Sudeste 0 -- -- 44
2020-05-26 10:00:00 18.5 10 Sudeste 19 Sudeste 0 -- -- 53
2020-05-26 09:00:00 13.9 6 Este 9 Nordeste 0 -- -- 93
2020-05-26 08:00:00 9.2 0 Calma -- -- 0 -- -- 93
2020-05-26 07:00:00 8.4 0 Calma -- -- 0 -- -- 92
2020-05-26 06:00:00 9 0 Calma -- -- 0 -- -- 92
2020-05-26 05:00:00 9.7 0 Calma 11 Nordeste 0 -- -- 91
2020-05-26 04:00:00 10 6 Nordeste 9 Nordeste 0 -- -- 90
2020-05-26 03:00:00 10.8 2 Nordeste 6 Nordeste 0 -- -- 88
2020-05-26 02:00:00 11.6 3 Nordeste 5 Sudeste 0 -- -- 85
2020-05-26 01:00:00 13.3 4 Sudeste 15 Sudeste 0 -- -- 82
2020-05-26 00:00:00 14.6 3 Sur 8 Sudoeste 0 -- -- 76
2020-05-25 23:00:00 16.3 3 Oeste 12 Oeste 0 -- -- 69
2020-05-25 22:00:00 18.8 5 Noroeste 17 Norte 0 -- -- 63
2020-05-25 21:00:00 22.2 12 Norte 26 Norte 0 -- -- 56
2020-05-25 20:00:00 24.4 18 Norte 31 Norte 0 -- -- 52
2020-05-25 19:00:00 26.2 18 Noroeste 26 Norte 0 -- -- 48
2020-05-25 18:00:00 26.3 17 Norte 28 Norte 0 -- -- 47
2020-05-25 17:00:00 26.1 18 Norte 28 Noroeste 0 -- -- 47
2020-05-25 16:00:00 25.9 19 Norte 28 Norte 0 -- -- 47
2020-05-25 15:00:00 24.9 18 Norte 25 Norte 0 -- -- 49
2020-05-25 14:00:00 23.7 15 Norte 25 Norte 0 -- -- 53
2020-05-25 13:00:00 22.6 11 Norte 17 Norte 0 -- -- 58
2020-05-25 12:00:00 19.7 12 Norte 21 Norte 0 -- -- 67
2020-05-25 11:00:00 18 11 Norte 17 Norte 0 -- -- 73
2020-05-25 10:00:00 16.3 10 Nordeste 14 Nordeste 0 -- -- 89
2020-05-25 09:00:00 13.6 0 Calma 2 Sudeste 0 -- -- 93
2020-05-25 08:00:00 10.2 0 Calma 4 Sudeste 0 -- -- 93
2020-05-25 07:00:00 9.3 0 Calma 3 Norte 0 -- -- 93
2020-05-25 06:00:00 9.8 0 Calma -- -- 0 -- -- 91
2020-05-25 05:00:00 10.7 0 Calma 3 Oeste 0 -- -- 90
2020-05-25 04:00:00 11.8 0 Calma 3 Noroeste 0 -- -- 90
2020-05-25 03:00:00 12.6 0 Calma 5 Sudeste 0 -- -- 87
2020-05-25 02:00:00 14 2 Sur 5 Este 0 -- -- 84
2020-05-25 01:00:00 15.8 2 Oeste 7 Sudoeste 0 -- -- 79
2020-05-25 00:00:00 17.2 3 Oeste 10 Oeste 0 -- -- 76
2020-05-24 23:00:00 18.5 4 Sudoeste 11 Noroeste 0 -- -- 71
2020-05-24 22:00:00 20.2 9 Norte 21 Noroeste 0 -- -- 63
2020-05-24 21:00:00 25.1 10 Norte 18 Noroeste 0 -- -- 43
2020-05-24 20:00:00 27 12 Norte 21 Norte 0 -- -- 38
2020-05-24 19:00:00 27.6 14 Norte 22 Noroeste 0 -- -- 36
2020-05-24 18:00:00 28.5 3 Sur 20 Oeste 0 -- -- 33
2020-05-24 17:00:00 28.1 3 Sudeste 19 Nordeste 0 -- -- 36
2020-05-24 16:00:00 27.6 8 Este 19 Este 0 -- -- 37
2020-05-24 15:00:00 26.2 10 Este 26 Sudeste 0 -- -- 38
2020-05-24 14:00:00 24.7 12 Sudeste 24 Sudeste 0 -- -- 40
2020-05-24 13:00:00 23.2 13 Sudeste 25 Sudeste 0 -- -- 43
2020-05-24 12:00:00 21.8 12 Sudeste 23 Sudeste 0 -- -- 47
2020-05-24 11:00:00 20 13 Sudeste 26 Sudeste 0 -- -- 51
2020-05-24 10:00:00 17 4 Sudeste 11 Nordeste 0 -- -- 81
2020-05-24 09:00:00 11.8 0 Calma 7 Sudoeste 0 -- -- 93
2020-05-24 08:00:00 7.3 0 Calma 6 Oeste 0 -- -- 93
2020-05-24 07:00:00 6.3 2 Oeste 6 Oeste 0 -- -- 93
2020-05-24 06:00:00 6.6 0 Calma 4 Nordeste 0 -- -- 93
2020-05-24 05:00:00 6.6 2 Nordeste 5 Nordeste 0 -- -- 92
2020-05-24 04:00:00 7.4 0 Calma -- -- 0 -- -- 92
2020-05-24 03:00:00 8.3 0 Calma 4 Nordeste 0 -- -- 91
2020-05-24 02:00:00 9.1 3 Nordeste 12 Este 0 -- -- 89
2020-05-24 01:00:00 10.3 3 Sur 5 Oeste 0 -- -- 85
2020-05-24 00:00:00 11.8 3 Sudoeste 7 Oeste 0 -- -- 80
2020-05-23 23:00:00 13.3 5 Noroeste 11 Norte 0 -- -- 75
2020-05-23 22:00:00 15 5 Noroeste 21 Norte 0 -- -- 68
2020-05-23 21:00:00 18.2 13 Norte 27 Noroeste 0 -- -- 56
2020-05-23 20:00:00 21.1 18 Norte 25 Noroeste 0 -- -- 47
2020-05-23 19:00:00 22.7 17 Noroeste 25 Noroeste 0 -- -- 42
2020-05-23 18:00:00 22.9 15 Noroeste 25 Noroeste 0 -- -- 41
2020-05-23 17:00:00 22.6 12 Noroeste 23 Norte 0 -- -- 42
2020-05-23 16:00:00 21.9 14 Norte 25 Norte 0 -- -- 42
2020-05-23 15:00:00 21.2 12 Norte 31 Noroeste 0 -- -- 45
2020-05-23 14:00:00 20.1 14 Norte 22 Norte 0 -- -- 50
2020-05-23 13:00:00 18.7 6 Norte 23 Noroeste 0 -- -- 55
2020-05-23 12:00:00 16.6 8 Noroeste 20 Oeste 0 -- -- 64
2020-05-23 11:00:00 14.9 10 Noroeste 19 Norte 0 -- -- 72
2020-05-23 10:00:00 12.9 14 Noroeste 21 Noroeste 0 -- -- 81
2020-05-23 09:00:00 12.8 11 Noroeste 18 Noroeste 0 -- -- 90
2020-05-23 08:00:00 11.3 10 Noroeste 16 Norte 0 -- -- 92
2020-05-23 07:00:00 11 10 Noroeste 22 Norte 0 -- -- 92
2020-05-23 06:00:00 11.9 9 Noroeste 16 Noroeste 0 -- -- 92
2020-05-23 05:00:00 11.9 4 Noroeste 10 Noroeste 0 -- -- 91
2020-05-23 04:00:00 12 3 Norte 10 Nordeste 0 -- -- 88
2020-05-23 03:00:00 13.3 7 Norte 15 Norte 0 -- -- 87
2020-05-23 02:00:00 14.3 8 Norte 18 Norte 0 -- -- 87
2020-05-23 01:00:00 14.9 10 Norte 16 Norte 0 -- -- 85
2020-05-23 00:00:00 15.9 8 Noroeste 18 Noroeste 0 -- -- 82
2020-05-22 23:00:00 16.3 7 Noroeste 23 Noroeste 0 -- -- 81
2020-05-22 22:00:00 17.4 8 Noroeste 15 Norte 0 -- -- 77
2020-05-22 21:00:00 20.1 9 Noroeste 22 Norte 0 -- -- 68
2020-05-22 20:00:00 22.7 13 Norte 21 Oeste 0 -- -- 59
2020-05-22 19:00:00 24 13 Noroeste 23 Noroeste 0 -- -- 56
2020-05-22 18:00:00 25.1 7 Norte 26 Norte 0 -- -- 50
2020-05-22 17:00:00 24.7 15 Norte 25 Norte 0 -- -- 50
2020-05-22 16:00:00 25.4 12 Norte 24 Norte 0 -- -- 46
2020-05-22 15:00:00 24.9 5 Norte 17 Noroeste 0 -- -- 42
2020-05-22 14:00:00 24 3 Este 15 Norte 0 -- -- 44
2020-05-22 13:00:00 22.2 4 Norte 12 Nordeste 0 -- -- 50
2020-05-22 12:00:00 19.7 3 Norte 11 Noroeste 0 -- -- 60
2020-05-22 11:00:00 17.6 3 Nordeste 10 Nordeste 0 -- -- 74
2020-05-22 10:00:00 14.8 5 Nordeste 9 Nordeste 0 -- -- 90
2020-05-22 09:00:00 11 0 Calma 6 Noroeste 0 -- -- 93
2020-05-22 08:00:00 7.9 0 Calma 6 Norte 0 -- -- 92
2020-05-22 07:00:00 7.5 0 Calma 6 Sur 0 -- -- 92
2020-05-22 06:00:00 8.3 4 Sudoeste 8 Sudoeste 0 -- -- 92
2020-05-22 05:00:00 9.2 0 Calma 4 Norte 0 -- -- 92
2020-05-22 04:00:00 9.8 0 Calma -- -- 0 -- -- 90
2020-05-22 03:00:00 11.1 0 Calma 5 Sur 0 -- -- 89
2020-05-22 02:00:00 12.2 0 Calma 8 Oeste 0 -- -- 86
2020-05-22 01:00:00 13.6 4 Oeste 21 Sudoeste 0 -- -- 83
2020-05-22 00:00:00 15 9 Oeste 17 Oeste 0 -- -- 79
2020-05-21 23:00:00 16.4 6 Oeste 20 Oeste 0 -- -- 74
2020-05-21 22:00:00 18.5 9 Oeste 22 Oeste 0 -- -- 65
2020-05-21 21:00:00 22.4 7 Sudoeste 24 Oeste 0 -- -- 47
2020-05-21 20:00:00 24.1 10 Oeste 25 Oeste 0 -- -- 46
2020-05-21 19:00:00 26.1 14 Oeste 31 Oeste 0 -- -- 44
2020-05-21 18:00:00 27.5 10 Oeste 27 Oeste 0 -- -- 42
2020-05-21 17:00:00 27.7 7 Noroeste 17 Oeste 0 -- -- 44
2020-05-21 16:00:00 28.2 7 Oeste 22 Oeste 0 -- -- 37
2020-05-21 15:00:00 28.7 5 Sudoeste 30 Sur 0 -- -- 37
2020-05-21 14:00:00 27.7 13 Sur 32 Sudeste 0 -- -- 39
2020-05-21 13:00:00 26.3 11 Sudeste 26 Sudeste 0 -- -- 44
2020-05-21 12:00:00 24.2 14 Sudeste 30 Sudeste 0 -- -- 45
2020-05-21 11:00:00 21.9 15 Sudeste 29 Sudeste 0 -- -- 53
2020-05-21 10:00:00 15.2 0 Calma 8 Sudoeste 0 -- -- 92
2020-05-21 09:00:00 11.7 4 Sudoeste 7 Sudoeste 0 -- -- 92
2020-05-21 08:00:00 9.8 0 Calma -- -- 0 -- -- 92
2020-05-21 07:00:00 9.3 0 Calma -- -- 0 -- -- 92
2020-05-21 06:00:00 9.1 0 Calma -- -- 0 -- -- 92
2020-05-21 05:00:00 9.9 0 Calma 5 Sudoeste 0 -- -- 91
2020-05-21 04:00:00 11 4 Sudoeste 5 Sudoeste 0 -- -- 90
2020-05-21 03:00:00 11.6 0 Calma 8 Sudoeste 0 -- -- 89
2020-05-21 02:00:00 12.6 0 Calma 8 Oeste 0 -- -- 86
2020-05-21 01:00:00 14 3 Sudoeste 13 Oeste 0 -- -- 82
2020-05-21 00:00:00 15.1 5 Oeste 12 Oeste 0 -- -- 77
2020-05-20 23:00:00 16.6 6 Oeste 14 Oeste 0 -- -- 69
2020-05-20 22:00:00 18.3 7 Noroeste 22 Noroeste 0 -- -- 61
2020-05-20 21:00:00 21.5 8 Norte 19 Noroeste 0 -- -- 53
2020-05-20 20:00:00 22.6 11 Noroeste 26 Noroeste 0 -- -- 50
2020-05-20 19:00:00 24.3 16 Noroeste 28 Oeste 0 -- -- 45
2020-05-20 18:00:00 26.5 17 Noroeste 31 Noroeste 0 -- -- 39
2020-05-20 17:00:00 27.3 15 Noroeste 34 Noroeste 0 -- -- 39
2020-05-20 16:00:00 28.8 5 Sur 21 Este 0 -- -- 32
2020-05-20 15:00:00 28.2 4 Nordeste 16 Nordeste 0 -- -- 32
2020-05-20 14:00:00 27.8 3 Sudeste 17 Este 0 -- -- 36
2020-05-20 13:00:00 26.5 5 Sur 15 Sur 0 -- -- 39
2020-05-20 12:00:00 24.9 8 Sudeste -- -- -- -- -- 43
2020-05-20 11:00:00 21.6 2 Sudeste 6 Sudeste 0 -- -- 64
2020-05-20 10:00:00 17.1 0 Calma -- -- 0 -- -- 89
2020-05-20 09:00:00 12.8 0 Calma 2 Sudoeste 0 -- -- 92
2020-05-20 08:00:00 9.2 0 Calma 5 Sudoeste 0 -- -- 92
2020-05-20 07:00:00 8.7 2 Sudoeste 5 Sudoeste 0 -- -- 92
2020-05-20 06:00:00 9.6 0 Calma -- -- 0 -- -- 91
2020-05-20 05:00:00 10.1 0 Calma -- -- 0 -- -- 90
2020-05-20 04:00:00 11.2 0 Calma 10 Sur 0 -- -- 89
2020-05-20 03:00:00 12.6 7 Sur 10 Sudoeste 0 -- -- 89
2020-05-20 02:00:00 13.4 3 Sudoeste 8 Oeste 0 -- -- 86
2020-05-20 01:00:00 14.6 5 Sudoeste 8 Sur 0 -- -- 82
2020-05-20 00:00:00 16.2 0 Calma 6 Sudoeste 0 -- -- 76
2020-05-19 23:00:00 18.6 3 Sudoeste 14 Oeste 0 -- -- 65
2020-05-19 22:00:00 21.5 5 Oeste 14 Noroeste 0 -- -- 54
2020-05-19 21:00:00 25.2 6 Noroeste 19 Noroeste 0 -- -- 42
2020-05-19 20:00:00 26.5 9 Noroeste 21 Noroeste 0 -- -- 39
2020-05-19 19:00:00 27.2 14 Noroeste 21 Norte 0 -- -- 36
2020-05-19 18:00:00 27.8 13 Noroeste 22 Noroeste 0 -- -- 35
2020-05-19 17:00:00 28.2 4 Norte 16 Sudoeste 0 -- -- 28
2020-05-19 16:00:00 27.8 3 Sudeste 13 Este 0 -- -- 30
2020-05-19 15:00:00 26.9 4 Este 19 Sudeste 0 -- -- 34
2020-05-19 14:00:00 25.8 11 Sudeste 24 Este 0 -- -- 35
2020-05-19 13:00:00 24.3 15 Sudeste 30 Sudeste 0 -- -- 36
2020-05-19 12:00:00 22.8 15 Sudeste 31 Sudeste 0 -- -- 38
2020-05-19 11:00:00 20.8 19 Sudeste 31 Sudeste 0 -- -- 41
2020-05-19 10:00:00 16.9 10 Sudeste 20 Sudeste 0 -- -- 83
2020-05-19 09:00:00 9.6 4 Oeste 9 Sur 0 -- -- 92
2020-05-19 08:00:00 7.3 6 Sur -- -- -- -- -- 93
2020-05-19 07:00:00 6.1 5 Sudoeste 8 Sudoeste 0 -- -- 92
2020-05-19 06:00:00 6.1 0 Calma -- -- 0 -- -- 92
2020-05-19 05:00:00 7 0 Calma -- -- 0 -- -- 91
2020-05-19 04:00:00 7.6 0 Calma 4 Norte 0 -- -- 90
2020-05-19 03:00:00 10 5 Sur 8 Sur 0 -- -- 89
2020-05-19 02:00:00 10.6 4 Sudoeste 9 Sudoeste 0 -- -- 87
2020-05-19 01:00:00 12.1 6 Sudoeste 9 Sudoeste 0 -- -- 83
2020-05-19 00:00:00 13.7 3 Sudoeste 8 Oeste 0 -- -- 75
2020-05-18 23:00:00 16.2 6 Noroeste 11 Oeste 0 -- -- 63
2020-05-18 22:00:00 18.3 6 Noroeste 15 Noroeste 0 -- -- 56
2020-05-18 21:00:00 20.9 7 Noroeste 24 Noroeste 0 -- -- 50
2020-05-18 20:00:00 22.1 13 Noroeste 28 Noroeste 0 -- -- 44
2020-05-18 19:00:00 25.2 14 Noroeste 25 Noroeste 0 -- -- 28
2020-05-18 18:00:00 25.5 12 Norte 24 Norte 0 -- -- 29
2020-05-18 17:00:00 25.8 12 Norte 23 Noroeste 0 -- -- 31
2020-05-18 16:00:00 24.9 8 Noroeste 18 Norte 0 -- -- 31
2020-05-18 15:00:00 24.1 9 Norte 18 Norte 0 -- -- 33
2020-05-18 14:00:00 23.2 6 Norte 19 Noroeste 0 -- -- 34
2020-05-18 13:00:00 22.5 10 Norte 18 Norte 0 -- -- 36
2020-05-18 12:00:00 20.7 4 Norte 13 Norte 0 -- -- 42
2020-05-18 11:00:00 17.7 3 Sudoeste 8 Sudoeste 0 -- -- 68
2020-05-18 10:00:00 13.9 0 Calma 6 Sur 0 -- -- 91
2020-05-18 09:00:00 9.7 0 Calma -- -- 0 -- -- 92
2020-05-18 08:00:00 5.9 0 Calma -- -- 0 -- -- 92
2020-05-18 07:00:00 5.1 0 Calma -- -- 0 -- -- 92
2020-05-18 06:00:00 6.3 0 Calma 3 Sudoeste 0 -- -- 91
2020-05-18 05:00:00 8.2 3 Sudoeste 9 Sudoeste 0 -- -- 91
2020-05-18 04:00:00 9.2 5 Sur 8 Oeste 0 -- -- 90
2020-05-18 03:00:00 10.2 4 Sudoeste 8 Sudoeste 0 -- -- 88
2020-05-18 02:00:00 10.8 5 Sudoeste 8 Sudoeste 0 -- -- 85
2020-05-18 01:00:00 11.9 4 Oeste 8 Oeste 0 -- -- 81
2020-05-18 00:00:00 13.6 4 Sudoeste 9 Oeste 0 -- -- 74
2020-05-17 23:00:00 15.9 5 Noroeste 14 Noroeste 0 -- -- 65
2020-05-17 22:00:00 17.4 5 Noroeste 23 Noroeste 0 -- -- 60
2020-05-17 21:00:00 21.1 12 Noroeste 25 Noroeste 0 -- -- 47
2020-05-17 20:00:00 23.4 10 Norte 18 Noroeste 0 -- -- 35
2020-05-17 19:00:00 23.8 8 Norte 35 Noroeste 0 -- -- 25
2020-05-17 18:00:00 23.8 8 Norte 20 Norte 0 -- -- 25
2020-05-17 17:00:00 23.4 9 Noroeste 25 Nordeste 0 -- -- 31
2020-05-17 16:00:00 22.9 7 Norte 19 Norte 0 -- -- 36
2020-05-17 15:00:00 22 7 Nordeste 19 Nordeste 0 -- -- 39
2020-05-17 14:00:00 20.4 6 Norte 15 Este 0 -- -- 43
2020-05-17 13:00:00 19.1 8 Sudeste 22 Sudeste 0 -- -- 46
2020-05-17 12:00:00 17.3 13 Sudeste 27 Sudeste 0 -- -- 48
2020-05-17 11:00:00 15.5 14 Sudeste 26 Sudeste 0 -- -- 50
2020-05-17 10:00:00 13.8 12 Sudeste 23 Sudeste 0 -- -- 56
2020-05-17 09:00:00 11.1 7 Sudeste 16 Sudeste 0 -- -- 63
2020-05-17 08:00:00 8.2 4 Sudeste 16 Este 0 -- -- 71
2020-05-17 07:00:00 7.6 7 Este 23 Sudeste 0 -- -- 70
2020-05-17 06:00:00 8.9 14 Sudeste 27 Sudeste 0 -- -- 67
2020-05-17 05:00:00 9.2 13 Sudeste 27 Sudeste 0 -- -- 74
2020-05-17 04:00:00 8.6 14 Sudeste 22 Sudeste 0 -- -- 89
2020-05-17 03:00:00 7.4 2 Sudeste 15 Sudeste 0 -- -- 90
2020-05-17 02:00:00 8.9 6 Sudeste 13 Sudeste 0 -- -- 88
2020-05-17 01:00:00 9.7 0 Calma 7 Oeste 0 -- -- 84
2020-05-17 00:00:00 11.4 3 Sudoeste 13 Norte 0 -- -- 79
2020-05-16 23:00:00 12.8 11 Norte 23 Nordeste 0 -- -- 75
2020-05-16 22:00:00 14.8 12 Norte 21 Nordeste 0 -- -- 63
2020-05-16 21:00:00 18.3 13 Norte 21 Norte 0 -- -- 47
2020-05-16 20:00:00 20.5 12 Noroeste 19 Noroeste 0 -- -- 44
2020-05-16 19:00:00 21.1 6 Norte 18 Noroeste 0 -- -- 42
2020-05-16 18:00:00 20.7 3 Norte 24 Nordeste 0 -- -- 44
2020-05-16 17:00:00 20.4 8 Nordeste 17 Nordeste 0 -- -- 47
2020-05-16 16:00:00 19.2 6 Norte 14 Nordeste 0 -- -- 52
2020-05-16 15:00:00 17.9 6 Norte 16 Norte 0 -- -- 54
2020-05-16 14:00:00 16.8 4 Noroeste 15 Nordeste 0 -- -- 55
2020-05-16 13:00:00 16.4 5 Este 18 Este 0 -- -- 56
2020-05-16 12:00:00 15 9 Este 18 Este 0 -- -- 67
2020-05-16 11:00:00 12.4 8 Este 15 Este 0 -- -- 93
2020-05-16 10:00:00 7.9 4 Norte 8 Nordeste 0 -- -- 93
2020-05-16 09:00:00 6.2 4 Sudeste 7 Sur 0 -- -- 93
2020-05-16 08:00:00 4.7 0 Calma -- -- 0 -- -- 93
2020-05-16 07:00:00 3.9 0 Calma 7 Sudoeste 0 -- -- 92
2020-05-16 06:00:00 3.8 4 Sur 7 Sur 0 -- -- 92
2020-05-16 05:00:00 3.7 0 Calma 4 Sudoeste 0 -- -- 91
2020-05-16 04:00:00 5 3 Sudeste 6 Sudoeste 0 -- -- 90
2020-05-16 03:00:00 6.4 4 Sudoeste 6 Sudoeste 0 -- -- 89
2020-05-16 02:00:00 7.3 2 Sur 5 Sur 0 -- -- 87
2020-05-16 01:00:00 8.3 2 Norte 7 Oeste 0 -- -- 84
2020-05-16 00:00:00 9.3 5 Oeste 9 Oeste 0 -- -- 81
2020-05-15 23:00:00 10 7 Norte 12 Norte 0 -- -- 79
2020-05-15 22:00:00 11.4 5 Norte 14 Nordeste 0 -- -- 75
2020-05-15 21:00:00 12.4 8 Nordeste 15 Norte 0 -- -- 75
2020-05-15 20:00:00 13.1 6 Norte 14 Norte 0 -- -- 81
2020-05-15 19:00:00 12.5 10 Norte 15 Norte 0.1 -- -- 81
2020-05-15 18:00:00 13.3 9 Norte 17 Norte 0 -- -- 80
2020-05-15 17:00:00 12.7 3 Sudoeste 14 Sudeste 2.1 -- -- 82
2020-05-15 16:00:00 14.2 7 Sudeste 16 Norte 0 -- -- 68
2020-05-15 15:00:00 15 6 Nordeste 18 Nordeste 0 -- -- 73
2020-05-15 14:00:00 13.1 12 Norte 19 Norte 0 -- -- 78
2020-05-15 13:00:00 13.3 5 Oeste 11 Oeste 0 -- -- 80
2020-05-15 12:00:00 10.8 5 Noroeste 10 Norte 0 -- -- 90
2020-05-15 11:00:00 10.4 5 Norte 12 Norte 0 -- -- 92
2020-05-15 10:00:00 9.7 7 Nordeste -- -- -- -- -- 93
2020-05-15 09:00:00 8.9 0 Calma 5 Norte 0 -- -- 93
2020-05-15 08:00:00 7.8 3 Norte 9 Noroeste 0 -- -- 93
2020-05-15 07:00:00 7.4 5 Norte 9 Nordeste 0 -- -- 93
2020-05-15 06:00:00 7.5 0 Calma 5 Nordeste 0 -- -- 93
2020-05-15 05:00:00 7.5 0 Calma 7 Oeste 0 -- -- 93
2020-05-15 04:00:00 7.8 4 Oeste 8 Noroeste 0 -- -- 93
2020-05-15 03:00:00 8.5 0 Calma 4 Sudoeste 0 -- -- 92
2020-05-15 02:00:00 8.7 0 Calma 8 Noroeste 0 -- -- 93
2020-05-15 01:00:00 8.8 5 Noroeste 12 Norte 0 -- -- 92
2020-05-15 00:00:00 9.6 6 Norte 17 Norte 0.6 -- -- 92
2020-05-14 23:00:00 10.3 13 Norte 21 Norte 0 -- -- 92
2020-05-14 22:00:00 11 12 Norte 18 Norte 0 -- -- 90
2020-05-14 21:00:00 11.4 9 Norte 18 Norte 0.1 -- -- 88
2020-05-14 20:00:00 11.9 13 Noroeste 19 Norte 0 -- -- 83
2020-05-14 19:00:00 12.9 12 Norte 20 Noroeste 0 -- -- 81
2020-05-14 18:00:00 13.1 12 Norte 19 Noroeste 0 -- -- 81
2020-05-14 17:00:00 12.7 6 Norte -- -- -- -- -- 83
2020-05-14 16:00:00 12.3 10 Norte 15 Norte 0.1 -- -- 81
2020-05-14 15:00:00 12.9 5 Este 13 Sudeste 0.5 -- -- 86
2020-05-14 14:00:00 10.4 7 Sudeste 22 Sudeste 1 -- -- 84
2020-05-14 13:00:00 12.7 9 Sudeste 19 Sudeste 0 -- -- 76
2020-05-14 12:00:00 11.7 7 Sudeste 14 Sudeste 0 -- -- 92
2020-05-14 11:00:00 10.5 9 Sudeste 13 Sudeste 0 -- -- 93
2020-05-14 10:00:00 10.2 5 Este 11 Este 0 -- -- 93
2020-05-14 09:00:00 9.8 4 Sur 21 Este 1.7 -- -- 93
2020-05-14 08:00:00 9.6 5 Norte 9 Nordeste 0 -- -- 93
2020-05-14 07:00:00 9.4 3 Norte 8 Nordeste 0 -- -- 93
2020-05-14 06:00:00 9.7 0 Calma 8 Norte 0.1 -- -- 93
2020-05-14 05:00:00 9.9 0 Calma 9 Nordeste 0.2 -- -- 93
2020-05-14 04:00:00 10.2 8 Norte 13 Nordeste 0 -- -- 92
2020-05-14 03:00:00 10.2 0 Calma 6 Norte 0 -- -- 92
2020-05-14 02:00:00 10.3 0 Calma -- -- 0 -- -- 91
2020-05-14 01:00:00 10 0 Calma 6 Norte 0 -- -- 90
2020-05-14 00:00:00 11.5 5 Norte 10 Nordeste 0 -- -- 89
2020-05-13 23:00:00 11.8 6 Nordeste 19 Nordeste 0 -- -- 85
2020-05-13 22:00:00 13.1 5 Nordeste 13 Nordeste 0 -- -- 76
2020-05-13 21:00:00 15.7 8 Oeste 17 Oeste 0 -- -- 59
2020-05-13 20:00:00 17.1 6 Oeste 24 Oeste 0 -- -- 55
2020-05-13 19:00:00 18.8 9 Sur 25 Sudeste 0 -- -- 44
2020-05-13 18:00:00 19.1 14 Sudeste 25 Sudeste 0 -- -- 44
2020-05-13 17:00:00 18.6 12 Sur 24 Sudeste 0 -- -- 42
2020-05-13 16:00:00 19 13 Sur 30 Sur 0 -- -- 42
2020-05-13 15:00:00 18.5 15 Sur 28 Sur 0 -- -- 44
2020-05-13 14:00:00 18 15 Sudeste 26 Sur 0 -- -- 48
2020-05-13 13:00:00 17.1 13 Sudeste 26 Sudeste 0 -- -- 55
2020-05-13 12:00:00 15.6 12 Sudeste 23 Sudeste 0 -- -- 67
2020-05-13 11:00:00 12.8 12 Sudeste 21 Sudeste 0 -- -- 77
2020-05-13 10:00:00 12.6 11 Sudeste 21 Sudeste 0 -- -- 92
2020-05-13 09:00:00 10.7 6 Sudeste 12 Sudeste 0 -- -- 93
2020-05-13 08:00:00 8.8 0 Calma -- -- 0 -- -- 93
2020-05-13 07:00:00 9.3 0 Calma -- -- 0 -- -- 93
2020-05-13 06:00:00 9.4 0 Calma -- -- 0 -- -- 92
2020-05-13 05:00:00 9.5 0 Calma -- -- 0 -- -- 92
2020-05-13 04:00:00 9.7 0 Calma 6 Sudeste 0 -- -- 93
2020-05-13 03:00:00 9.9 3 Sur 4 Sur 0.1 -- -- 92
2020-05-13 02:00:00 10.3 0 Calma 6 Sudoeste 0 -- -- 92
2020-05-13 01:00:00 10.3 3 Oeste 6 Sur 0 -- -- 91
2020-05-13 00:00:00 10.8 0 Calma 5 Sur 0 -- -- 91
2020-05-12 23:00:00 11.2 2 Noroeste 10 Norte 0 -- -- 91
2020-05-12 22:00:00 11.5 4 Nordeste 13 Oeste 0.2 -- -- 90
2020-05-12 21:00:00 11.7 0 Calma 19 Noroeste 2.4 -- -- 88
2020-05-12 20:00:00 12.5 10 Noroeste 22 Norte 1.8 -- -- 85
2020-05-12 19:00:00 14.5 13 Noroeste 24 Noroeste 0 -- -- 72
2020-05-12 18:00:00 16.3 11 Noroeste 25 Oeste 0 -- -- 56
2020-05-12 17:00:00 17.5 15 Oeste 28 Noroeste 0 -- -- 57
2020-05-12 16:00:00 19.1 3 Nordeste 18 Nordeste 0 -- -- 50
2020-05-12 15:00:00 18.9 4 Este 15 Nordeste 0 -- -- 58
2020-05-12 14:00:00 16.4 7 Nordeste 15 Nordeste 0 -- -- 72
2020-05-12 13:00:00 15 5 Nordeste 13 Nordeste 4.2 -- -- 82
2020-05-12 12:00:00 12.9 2 Sudeste 11 Norte 3.7 -- -- 89
2020-05-12 11:00:00 12.5 7 Norte 11 Norte 0 -- -- 92
2020-05-12 10:00:00 11.4 0 Calma -- -- 0 -- -- 93
2020-05-12 09:00:00 10.8 2 Nordeste 5 Sur 0 -- -- 92
2020-05-12 08:00:00 10.2 0 Calma -- -- -- -- -- 92
2020-05-12 07:00:00 10.3 0 Calma -- -- 0 -- -- 92
2020-05-12 06:00:00 10.3 0 Calma -- -- 0.1 -- -- 92
2020-05-12 05:00:00 9.9 0 Calma -- -- 0 -- -- 92
2020-05-12 04:00:00 10.2 0 Calma 7 Sudoeste 0 -- -- 91
2020-05-12 03:00:00 10.7 2 Sudoeste 11 Oeste 0 -- -- 91
2020-05-12 02:00:00 11.1 5 Oeste 15 Oeste 0 -- -- 90
2020-05-12 01:00:00 11.7 6 Oeste 18 Oeste 0 -- -- 90
2020-05-12 00:00:00 12.2 5 Oeste 14 Sudoeste 0 -- -- 90
2020-05-11 23:00:00 12.3 5 Oeste 13 Oeste 0 -- -- 89
2020-05-11 22:00:00 12.6 2 Nordeste 10 Oeste 0 -- -- 87
2020-05-11 21:00:00 12.6 7 Oeste 21 Oeste 0.7 -- -- 83
2020-05-11 20:00:00 14.4 7 Sudoeste -- -- -- -- -- 64
2020-05-11 19:00:00 17.9 4 Norte 14 Norte 0 -- -- 49
2020-05-11 18:00:00 18.4 9 Noroeste 13 Noroeste 0 -- -- 44
2020-05-11 17:00:00 21.2 4 Este 15 Sudeste 0 -- -- 39
2020-05-11 16:00:00 20.1 6 Sudeste 19 Norte 0 -- -- 42
2020-05-11 15:00:00 19.1 9 Sudeste 24 Este 0 -- -- 47
2020-05-11 14:00:00 18.5 12 Sudeste 24 Este 0 -- -- 52
2020-05-11 13:00:00 17.3 8 Sudeste 22 Sudeste 0 -- -- 56
2020-05-11 12:00:00 15.6 14 Sudeste 24 Este 0 -- -- 65
2020-05-11 11:00:00 13.2 13 Sudeste 25 Sudeste 0 -- -- 79
2020-05-11 10:00:00 10.8 12 Sudeste 26 Sudeste 0 -- -- 90
2020-05-11 09:00:00 10 10 Sudeste 22 Sudeste 0 -- -- 93
2020-05-11 08:00:00 8.3 11 Sudeste 19 Sudeste 0 -- -- 93
2020-05-11 07:00:00 7.1 7 Sudeste 14 Sudeste 0 -- -- 93
2020-05-11 06:00:00 5 0 Calma 10 Oeste 0 -- -- 93
2020-05-11 05:00:00 4.4 0 Calma -- -- 0 -- -- 93
2020-05-11 04:00:00 4.5 0 Calma 6 Oeste 0 -- -- 92
2020-05-11 03:00:00 4.9 2 Sudoeste 7 Sur 0 -- -- 91
2020-05-11 02:00:00 5.3 3 Sur 8 Sur 0 -- -- 89
2020-05-11 01:00:00 6.1 0 Calma 5 Sudoeste 0 -- -- 86
2020-05-11 00:00:00 8.2 3 Sur 9 Sur 0 -- -- 81
2020-05-10 23:00:00 10 5 Oeste 17 Oeste 0 -- -- 74
2020-05-10 22:00:00 11.6 6 Oeste 17 Oeste 0 -- -- 69
2020-05-10 21:00:00 13.6 6 Oeste 19 Oeste 0 -- -- 66
2020-05-10 20:00:00 14.3 7 Noroeste 13 Oeste 0 -- -- 67
2020-05-10 19:00:00 14.5 8 Noroeste 19 Oeste 0 -- -- 63
2020-05-10 18:00:00 14.7 9 Oeste 25 Noroeste 0 -- -- 60
2020-05-10 17:00:00 15.4 17 Oeste 30 Oeste 0 -- -- 60
2020-05-10 16:00:00 16.1 9 Norte 19 Noroeste 0 -- -- 52
2020-05-10 15:00:00 17 8 Noroeste 14 Noroeste 0 -- -- 49
2020-05-10 14:00:00 15.8 4 Noroeste 13 Norte 0 -- -- 52
2020-05-10 13:00:00 15.5 2 Este 11 Sudeste 0 -- -- 55
2020-05-10 12:00:00 13.1 0 Calma 10 Nordeste 0 -- -- 71
2020-05-10 11:00:00 10.3 0 Calma 9 Noroeste 0 -- -- 89
2020-05-10 10:00:00 10.8 3 Nordeste 7 Oeste 0 -- -- 92
2020-05-10 09:00:00 8.8 3 Norte 7 Oeste 0 -- -- 93
2020-05-10 08:00:00 7.2 0 Calma 6 Sur 0 -- -- 93
2020-05-10 07:00:00 6.8 0 Calma 5 Sudoeste 0 -- -- 93
2020-05-10 06:00:00 7.4 0 Calma 4 Sudeste 0 -- -- 92
2020-05-10 05:00:00 7.8 0 Calma 5 Norte 0 -- -- 92
2020-05-10 04:00:00 7.7 2 Sur 5 Sur 0 -- -- 92
2020-05-10 03:00:00 8.2 0 Calma 7 Oeste 0 -- -- 92
2020-05-10 02:00:00 8.2 3 Sudoeste 14 Oeste 0 -- -- 92
2020-05-10 01:00:00 8.7 4 Sudoeste 12 Oeste 0 -- -- 92
2020-05-10 00:00:00 9.1 0 Calma 11 Sudoeste 0.1 -- -- 92
2020-05-09 23:00:00 9.1 3 Oeste 14 Sudoeste 0.6 -- -- 92
2020-05-09 22:00:00 9.7 0 Calma 10 Sur 0.5 -- -- 91
2020-05-09 21:00:00 9.7 8 Sur 16 Nordeste 0.3 -- -- 91
2020-05-09 20:00:00 -- 10 Nordeste 19 Nordeste 1.3 -- -- --
2020-05-09 19:00:00 10.3 3 Oeste 13 Oeste 2.9 -- -- 89
2020-05-09 18:00:00 10.7 5 Sudoeste 19 Oeste 3.6 -- -- 83
2020-05-09 17:00:00 12.1 7 Oeste 21 Oeste 0 -- -- 79
2020-05-09 16:00:00 10.9 8 Oeste -- -- -- -- -- 82
2020-05-09 15:00:00 12.5 13 Sudoeste 35 Oeste 0 -- -- 60
2020-05-09 14:00:00 17.4 18 Sudeste 36 Sudeste 0 -- -- 44
2020-05-09 13:00:00 16.1 17 Sudeste 30 Sur 0 -- -- 55
2020-05-09 12:00:00 14.4 18 Sudeste 33 Sudeste 0 -- -- 62
2020-05-09 11:00:00 13.6 13 Sudeste 24 Sudeste 0 -- -- 75
2020-05-09 10:00:00 13.4 10 Sudeste 18 Sudeste 0 -- -- 91
2020-05-09 09:00:00 10.8 0 Calma 13 Sudoeste 0 -- -- 93
2020-05-09 08:00:00 10.1 3 Sudoeste 15 Oeste 0 -- -- 93
2020-05-09 07:00:00 10.4 3 Sudoeste 14 Oeste 0 -- -- 92
2020-05-09 06:00:00 10.1 3 Sudeste 12 Sudeste 0 -- -- 92
2020-05-09 05:00:00 10.1 0 Calma 8 Sur 0 -- -- 92
2020-05-09 04:00:00 10.8 3 Sudoeste 9 Oeste 0 -- -- 91
2020-05-09 03:00:00 10.3 0 Calma 6 Sudoeste 0 -- -- 91
2020-05-09 02:00:00 10.6 3 Sudoeste 12 Oeste 0 -- -- 90
2020-05-09 01:00:00 11.6 0 Calma 12 Oeste 0 -- -- 89
2020-05-09 00:00:00 12.4 6 Oeste 13 Oeste 0 -- -- 87
2020-05-08 23:00:00 13.2 0 Calma 13 Oeste 0 -- -- 84
2020-05-08 22:00:00 13.8 6 Oeste 15 Oeste 0 -- -- 82
2020-05-08 21:00:00 14.8 6 Oeste 22 Oeste 0 -- -- 79
2020-05-08 20:00:00 15.6 10 Oeste 28 Oeste 0 -- -- 76
2020-05-08 19:00:00 17.9 17 Oeste 35 Oeste 0 -- -- 68
2020-05-08 18:00:00 18.4 16 Oeste 33 Oeste 0 -- -- 71
2020-05-08 17:00:00 17.9 16 Oeste 37 Oeste 0 -- -- 74
2020-05-08 16:00:00 20 7 Sudoeste 32 Sudeste 0 -- -- 61
2020-05-08 15:00:00 21 18 Sudeste 39 Sudeste 0 -- -- 55
2020-05-08 14:00:00 22.7 17 Sudeste 34 Sudeste 0 -- -- 55
2020-05-08 13:00:00 21.2 20 Sudeste 32 Sudeste 0 -- -- 60
2020-05-08 12:00:00 19.6 17 Sudeste 31 Sudeste 0.3 -- -- 69
2020-05-08 11:00:00 18.6 13 Sudeste 27 Sudeste 0 -- -- 65
2020-05-08 10:00:00 17.1 12 Sudeste 23 Sudeste 0 -- -- 89
2020-05-08 09:00:00 12.9 2 Sudoeste 10 Oeste 0.2 -- -- 91
2020-05-08 08:00:00 12 2 Sudoeste 8 Sudoeste 0 -- -- 91
2020-05-08 07:00:00 12.6 3 Sudeste 9 Sur 0 -- -- 91
2020-05-08 06:00:00 13.3 0 Calma 4 Nordeste 0 -- -- 90
2020-05-08 05:00:00 13.6 2 Nordeste 9 Sur 0 -- -- 89
2020-05-08 04:00:00 14.2 0 Calma 7 Sur 0 -- -- 88
2020-05-08 03:00:00 14.3 3 Sur 10 Noroeste 0 -- -- 88
2020-05-08 02:00:00 13.9 0 Calma 8 Sudoeste 0 -- -- 85
2020-05-08 01:00:00 15 4 Sur 7 Sur 0 -- -- 83
2020-05-08 00:00:00 16.5 0 Calma 8 Oeste 0 -- -- 76
2020-05-07 23:00:00 17.6 4 Oeste 12 Oeste 0 -- -- 70
2020-05-07 22:00:00 19.9 4 Oeste 14 Oeste 0 -- -- 57
2020-05-07 21:00:00 22.4 8 Noroeste 18 Noroeste 0 -- -- 47
2020-05-07 20:00:00 24.8 5 Oeste 22 Sudeste 0 -- -- 34
2020-05-07 19:00:00 25.3 6 Sudeste 25 Sudeste 0 -- -- 35
2020-05-07 18:00:00 25 14 Sudeste 27 Sudeste 0 -- -- 33
2020-05-07 17:00:00 26 12 Sudeste 28 Sudeste 0 -- -- 31
2020-05-07 16:00:00 24.8 9 Sudeste 21 Sur 0 -- -- 34
2020-05-07 15:00:00 25 12 Sur 23 Sur 0 -- -- 36
2020-05-07 14:00:00 23.7 0 Calma 15 Sur 0 -- -- 43
2020-05-07 13:00:00 21.7 5 Este 13 Nordeste 0 -- -- 53
2020-05-07 12:00:00 18.5 4 Nordeste 9 Este 0 -- -- 66
2020-05-07 11:00:00 14.6 2 Norte 7 Norte 0 -- -- 91
2020-05-07 10:00:00 11.8 0 Calma 5 Norte 0 -- -- 93
2020-05-07 09:00:00 8.7 0 Calma 4 Sur 0 -- -- 93
2020-05-07 08:00:00 6.4 0 Calma -- -- 0 -- -- 93
2020-05-07 07:00:00 6.2 0 Calma -- -- 0 -- -- 93
2020-05-07 06:00:00 6.4 0 Calma 6 Sudoeste 0 -- -- 92
2020-05-07 05:00:00 7.7 5 Sudoeste 6 Sudoeste 0 -- -- 92
2020-05-07 04:00:00 8.6 4 Sur 7 Sur 0 -- -- 91
2020-05-07 03:00:00 9.7 3 Sur 8 Sudoeste 0 -- -- 90
2020-05-07 02:00:00 10.5 4 Sudoeste 8 Sudoeste 0 -- -- 89
2020-05-07 01:00:00 11.2 3 Sudoeste 8 Oeste 0 -- -- 87
2020-05-07 00:00:00 12.2 0 Calma 5 Nordeste 0 -- -- 82
2020-05-06 23:00:00 12.9 0 Calma 10 Oeste 0 -- -- 76
2020-05-06 22:00:00 14.6 5 Oeste 13 Norte 0 -- -- 68
2020-05-06 21:00:00 16.8 7 Noroeste 18 Noroeste 0 -- -- 60
2020-05-06 20:00:00 19.1 12 Noroeste 20 Noroeste 0 -- -- 52
2020-05-06 19:00:00 19.8 11 Noroeste 18 Noroeste 0 -- -- 46
2020-05-06 18:00:00 21 9 Noroeste 17 Norte 0 -- -- 44
2020-05-06 17:00:00 21.8 5 Sudoeste 18 Sudoeste 0 -- -- 41
2020-05-06 16:00:00 21.3 6 Sudoeste 21 Sudeste 0 -- -- 42
2020-05-06 15:00:00 20.5 9 Este 22 Sudeste 0 -- -- 44
2020-05-06 14:00:00 19.6 8 Sudeste 18 Sudeste 0 -- -- 47
2020-05-06 13:00:00 19 8 Sudeste 23 Sur 0 -- -- 50
2020-05-06 12:00:00 17.1 8 Este 18 Nordeste 0 -- -- 58
2020-05-06 11:00:00 14.3 12 Sudeste 19 Sudeste 0 -- -- 74
2020-05-06 10:00:00 12.2 8 Sudeste 18 Sudeste 0 -- -- 92
2020-05-06 09:00:00 8.5 8 Sudeste 12 Sudeste 0 -- -- 92
2020-05-06 08:00:00 4.1 0 Calma 4 Sudoeste 0 -- -- 92
2020-05-06 07:00:00 5.4 3 Oeste 12 Sudeste 0 -- -- 92
2020-05-06 06:00:00 6.6 8 Sur 12 Sur 0 -- -- 92
2020-05-06 05:00:00 5.9 4 Sur 8 Sur 0 -- -- 92
2020-05-06 04:00:00 5.2 4 Nordeste 9 Nordeste 0 -- -- 91
2020-05-06 03:00:00 5.9 0 Calma 8 Oeste 0 -- -- 88
2020-05-06 02:00:00 7.5 0 Calma 10 Este 0 -- -- 87
2020-05-06 01:00:00 8.2 4 Sudeste 10 Sudoeste 0 -- -- 85
2020-05-06 00:00:00 9.4 3 Sudoeste 9 Sudoeste 0 -- -- 82
2020-05-05 23:00:00 10.4 3 Sur 11 Oeste 0 -- -- 79
2020-05-05 22:00:00 12.5 8 Oeste 18 Oeste 0 -- -- 73
2020-05-05 21:00:00 15.7 9 Oeste 29 Oeste 0 -- -- 61
2020-05-05 20:00:00 17.9 13 Oeste -- -- -- -- -- 50
2020-05-05 19:00:00 19.4 10 Sudoeste 28 Sudoeste 0 -- -- 47
2020-05-05 18:00:00 19.1 12 Sudoeste 31 Sur 0 -- -- 47
2020-05-05 17:00:00 17 11 Sur 28 Sur 0 -- -- 56
2020-05-05 16:00:00 16.1 9 Sur 30 Sur 0 -- -- 58
2020-05-05 15:00:00 15.8 12 Sur 28 Sur 0 -- -- 54
2020-05-05 14:00:00 16.7 13 Sur 31 Sur 0 -- -- 50
2020-05-05 13:00:00 17 13 Sudoeste 28 Sudoeste 0 -- -- 56
2020-05-05 12:00:00 14.4 10 Sur 20 Sur 0 -- -- 60
2020-05-05 11:00:00 13.5 9 Sur 27 Sur 0 -- -- 66
2020-05-05 10:00:00 11.4 11 Sur 20 Sudeste 0 -- -- 77
2020-05-05 09:00:00 10 11 Sudeste 18 Sudeste 0 -- -- 84
2020-05-05 08:00:00 9.1 10 Sudeste 21 Sudeste 0 -- -- 84
2020-05-05 07:00:00 7.9 10 Sudeste 17 Sudeste 0 -- -- 84
2020-05-05 06:00:00 8.1 9 Sudeste 14 Sudeste 0 -- -- 84
2020-05-05 05:00:00 7 3 Sudeste 8 Sudeste 0 -- -- 82
2020-05-05 04:00:00 8.6 2 Nordeste 21 Sur 0 -- -- 76
2020-05-05 03:00:00 10.3 8 Sudoeste 17 Sur 0 -- -- 76
2020-05-05 02:00:00 10 5 Sudoeste 21 Oeste 0 -- -- 76
2020-05-05 01:00:00 10.8 2 Sur 20 Sur 0 -- -- 74
2020-05-05 00:00:00 11.4 11 Sur 24 Sur 0 -- -- 73
2020-05-04 23:00:00 11.9 10 Sudeste 26 Sudoeste 0 -- -- 71
2020-05-04 22:00:00 12.1 9 Sudeste 40 Sur 0 -- -- 68
2020-05-04 21:00:00 13.8 21 Sur 43 Sur 0 -- -- 63
2020-05-04 20:00:00 15.6 18 Sur 48 Sudoeste 0.1 -- -- 59
2020-05-04 19:00:00 16.7 19 Sudoeste 53 Sudoeste 0 -- -- 58
2020-05-04 18:00:00 -- 23 Sudoeste 63 Sudoeste 0 -- -- --
2020-05-04 17:00:00 15.1 21 Sudoeste 59 Sudoeste 0.6 -- -- 79
2020-05-04 16:00:00 -- -- -- -- -- -- -- -- --
2020-05-04 15:00:00 20.7 24 Sur 47 Sur 0 -- -- 48
2020-05-04 14:00:00 19.7 10 Sudoeste 36 Sur 0 -- -- 55
2020-05-04 13:00:00 23.4 10 Sur 33 Sur 0 -- -- 50
2020-05-04 12:00:00 21.9 17 Sudeste 35 Sudeste 0 -- -- 50
2020-05-04 11:00:00 21.3 19 Sudeste 37 Sudeste 0 -- -- 50
2020-05-04 10:00:00 20.8 18 Sudeste 33 Sudeste 0 -- -- 52
2020-05-04 09:00:00 18.2 17 Sudeste 31 Sudeste 0 -- -- 58
2020-05-04 08:00:00 17 16 Sudeste 33 Sur 0 -- -- 60
2020-05-04 07:00:00 18.2 20 Sudeste 37 Sudeste 0 -- -- 57
2020-05-04 06:00:00 17.7 17 Sudeste 32 Sudeste 0 -- -- 60
2020-05-04 05:00:00 18.2 15 Sudeste 28 Sudeste 0 -- -- 59
2020-05-04 04:00:00 17.3 13 Sudeste 24 Sudeste 0 -- -- 62
2020-05-04 03:00:00 16.2 5 Este 12 Este 0 -- -- 62
2020-05-04 02:00:00 17.9 6 Sudeste 20 Sudeste 0 -- -- 56
2020-05-04 01:00:00 18.5 12 Sudeste 24 Sudeste 0 -- -- 55
2020-05-04 00:00:00 18.3 14 Sudeste 24 Sudeste 0 -- -- 56
2020-05-03 23:00:00 19.7 6 Sudeste 17 Sudeste 0 -- -- 54
2020-05-03 22:00:00 20.2 6 Sudeste 11 Sudeste 0 -- -- 55
2020-05-03 21:00:00 24.1 8 Sudeste 19 Sudeste 0 -- -- 45
2020-05-03 20:00:00 24.9 12 Sudeste 29 Sudeste 0 -- -- 41
2020-05-03 19:00:00 25.9 15 Sudeste 27 Sudeste 0 -- -- 36
2020-05-03 18:00:00 26 16 Sudeste 31 Sudeste 0 -- -- 34
2020-05-03 17:00:00 25.7 19 Sudeste 35 Sudeste 0 -- -- 34
2020-05-03 16:00:00 25.3 20 Sudeste 32 Sudeste 0 -- -- 37
2020-05-03 15:00:00 24.7 17 Sudeste 32 Sudeste 0 -- -- 42
2020-05-03 14:00:00 23.6 16 Sudeste 31 Sudeste 0 -- -- 44
2020-05-03 13:00:00 21.6 20 Sudeste 32 Norte 0 -- -- 49
2020-05-03 12:00:00 19.9 19 Sudeste 39 Sudeste 0 -- -- 55
2020-05-03 11:00:00 18 19 Sudeste 37 Sudeste 0 -- -- 66
2020-05-03 10:00:00 14.9 18 Sudeste 33 Sudeste 0.1 -- -- 93
2020-05-03 09:00:00 9.5 2 Sudeste 16 Sudeste 0 -- -- 93
2020-05-03 08:00:00 6.2 5 Sudoeste 9 Sudoeste 0 -- -- 93
2020-05-03 07:00:00 5.9 2 Sudoeste 8 Sudoeste 0 -- -- 93
2020-05-03 06:00:00 6.5 0 Calma -- -- 0 -- -- 93
2020-05-03 05:00:00 6.2 0 Calma 8 Sudoeste 0 -- -- 92
2020-05-03 04:00:00 5.5 0 Calma 4 Sudoeste 0 -- -- 92
2020-05-03 03:00:00 6.7 2 Sudoeste 4 Sudoeste 0 -- -- 91
2020-05-03 02:00:00 8.1 3 Sur 6 Sur 0 -- -- 90
2020-05-03 01:00:00 9 0 Calma -- -- 0 -- -- 88
2020-05-03 00:00:00 10.4 0 Calma 6 Este 0 -- -- 86
2020-05-02 23:00:00 12 6 Este 9 Nordeste 0 -- -- 81
2020-05-02 22:00:00 14.3 3 Nordeste 12 Oeste 0 -- -- 74
2020-05-02 21:00:00 17.3 7 Oeste 18 Sudoeste 0 -- -- 59
2020-05-02 20:00:00 20.2 7 Oeste 19 Sudoeste 0 -- -- 49
2020-05-02 19:00:00 20.6 9 Oeste 23 Oeste 0 -- -- 48
2020-05-02 18:00:00 20.4 9 Oeste 25 Oeste 0 -- -- 49
2020-05-02 17:00:00 20.6 10 Sudoeste 27 Oeste 0 -- -- 49
2020-05-02 16:00:00 19.8 10 Oeste 34 Oeste 0 -- -- 50
2020-05-02 15:00:00 19.5 12 Oeste 28 Oeste 0 -- -- 55
2020-05-02 14:00:00 19 11 Sudoeste 22 Oeste 0 -- -- 56
2020-05-02 13:00:00 17.6 13 Oeste 25 Oeste 0 -- -- 65
2020-05-02 12:00:00 16 8 Sudoeste 28 Oeste 0 -- -- 74
2020-05-02 11:00:00 15.3 5 Sudoeste 15 Sudoeste 0 -- -- 85
2020-05-02 10:00:00 13.9 3 Sur 14 Sudeste 0 -- -- 92
2020-05-02 09:00:00 12.3 8 Sudeste 12 Sudeste 0 -- -- 92
2020-05-02 08:00:00 11.4 6 Sudeste 14 Sudeste 0 -- -- 92
2020-05-02 07:00:00 11.2 8 Sudeste 13 Sudeste 0 -- -- 92
2020-05-02 06:00:00 11.2 3 Sudeste 10 Este 0 -- -- 92
2020-05-02 05:00:00 11.5 0 Calma -- -- 0 -- -- 91
2020-05-02 04:00:00 11.1 0 Calma 6 Sudoeste 0 -- -- 91
2020-05-02 03:00:00 10.7 3 Sudeste 6 Sudeste 0 -- -- 90
2020-05-02 02:00:00 12 3 Sur 9 Sudoeste 0 -- -- 90
2020-05-02 01:00:00 12 0 Calma 13 Sudoeste 0 -- -- 90
2020-05-02 00:00:00 12.9 3 Sudoeste 10 Sudoeste 0 -- -- 90